Forside
METAR-TAF:

METAR-TAF

Lufthavne :

Hanford, Californien, USA

Breddekreds: 36-19-07N, længdekreds: 119-37-44W, højde: 74 m

Aktuelle vejr

Denne rapport blev lavet for 1 time og 25 minutter siden, kl. 06:53 UTC
Vind 3 kt fra østsydøst
Temperatur 13°C
Fugtighed 62%
Tryk 1015 hPa
Sigt: 16.1 km
Spredte skyer i en højde af 12000 ft

METAR: KHJO 220653Z AUTO 11003KT 10SM SCT120 13/06 A2997 RMK AO2 SLP150 T01330061

Tid: 00:18 (08:18 UTC)


TAF: fraværende

Vejrobservationer og prognoser fra mere end 4000 lufthavne (METAR og TAF).

De gule og røde prikker repræsenterer de meteorologiske stationer.

Flyt musen over at se navnet på stationen.

Så klik over at se vejr observationer og prognoser.

At skifte det kort: Klik på de grønne knapper med et sort kors for at zoome ind; på den grønne knap med en bindestreg for at zoome ud; eller på de grønne pile for tilstødende kort.


METAR-TAF: